createdAt,value
2023-02-12T00:02:16.772Z,14.73
2023-02-12T00:04:47.133Z,15.37
2023-02-12T00:07:20.170Z,15.23
2023-02-12T00:09:50.492Z,14.32
2023-02-12T00:12:20.782Z,15.50
2023-02-12T00:14:51.251Z,15.20
2023-02-12T00:17:21.651Z,14.13
2023-02-12T00:19:51.941Z,14.97
2023-02-12T00:22:24.853Z,14.53
2023-02-12T00:24:55.143Z,15.57
2023-02-12T00:27:25.836Z,15.47
2023-02-12T00:29:56.205Z,16.60
2023-02-12T00:32:26.566Z,16.23
2023-02-12T00:34:56.856Z,17.13
2023-02-12T00:37:29.757Z,15.07
2023-02-12T00:40:00.065Z,15.88
2023-02-12T00:42:30.404Z,16.03
2023-02-12T00:45:00.673Z,16.97
2023-02-12T00:47:33.732Z,17.15
2023-02-12T00:50:04.038Z,16.23
2023-02-12T00:52:37.057Z,17.27
2023-02-12T00:55:09.332Z,18.15
2023-02-12T00:57:39.730Z,17.80
2023-02-12T01:00:12.326Z,18.20
2023-02-12T01:02:42.634Z,18.25
2023-02-12T01:05:13.107Z,17.77
2023-02-12T01:07:46.186Z,18.83
2023-02-12T01:10:17.435Z,18.25
2023-02-12T01:12:47.772Z,18.70
2023-02-12T01:15:18.354Z,17.97
2023-02-12T01:17:48.956Z,17.83
2023-02-12T01:20:24.411Z,19.00
2023-02-12T01:22:58.890Z,19.65
2023-02-12T01:25:29.224Z,18.98
2023-02-12T01:27:59.752Z,18.83
2023-02-12T01:30:30.080Z,19.37
2023-02-12T01:33:00.742Z,17.92
2023-02-12T01:35:31.121Z,17.90
2023-02-12T01:38:04.151Z,17.67
2023-02-12T01:40:34.558Z,18.17
2023-02-12T01:43:05.488Z,17.15
2023-02-12T01:45:56.843Z,17.42
2023-02-12T01:48:30.993Z,18.73
2023-02-12T01:51:02.621Z,19.83
2023-02-12T01:53:41.185Z,18.85
2023-02-12T01:56:12.964Z,19.20
2023-02-12T01:58:47.093Z,19.27
2023-02-12T02:01:24.666Z,20.00
2023-02-12T02:04:02.477Z,20.50
2023-02-12T02:06:36.941Z,21.50
2023-02-12T02:09:10.145Z,19.67
2023-02-12T02:11:52.838Z,21.08
2023-02-12T02:14:35.386Z,20.40
2023-02-12T02:17:34.770Z,20.58
2023-02-12T02:20:45.741Z,20.88
2023-02-12T02:23:43.038Z,18.88
2023-02-12T02:26:35.917Z,23.05
2023-02-12T02:29:26.306Z,19.60
2023-02-12T02:32:06.584Z,21.50
2023-02-12T02:34:44.798Z,20.03
2023-02-12T02:37:22.040Z,21.15
2023-02-12T02:39:56.802Z,20.08
2023-02-12T02:42:33.020Z,22.95
2023-02-12T02:45:11.489Z,21.38
2023-02-12T02:47:49.980Z,20.42
2023-02-12T02:50:24.416Z,21.80
2023-02-12T02:53:00.459Z,20.77
2023-02-12T02:55:35.677Z,20.85
2023-02-12T02:58:13.440Z,21.98
2023-02-12T03:00:49.064Z,21.52
2023-02-12T03:03:27.592Z,21.15
2023-02-12T03:06:05.535Z,22.55
2023-02-12T03:08:41.968Z,20.70
2023-02-12T03:11:21.235Z,20.02
2023-02-12T03:13:57.660Z,21.90
2023-02-12T03:16:31.206Z,22.25
2023-02-12T03:19:11.541Z,20.10
2023-02-12T03:21:49.118Z,19.53
2023-02-12T03:24:26.117Z,20.23
2023-02-12T03:27:10.651Z,21.00
2023-02-12T03:29:41.193Z,21.08
2023-02-12T03:32:27.190Z,21.17
2023-02-12T03:35:13.235Z,21.45
2023-02-12T03:37:54.409Z,20.08
2023-02-12T03:40:32.089Z,21.15
2023-02-12T03:43:10.025Z,21.35
2023-02-12T03:45:49.540Z,19.15
2023-02-12T03:48:28.883Z,20.00
2023-02-12T03:51:07.377Z,22.20
2023-02-12T03:53:37.694Z,20.95
2023-02-12T03:56:14.108Z,20.70
2023-02-12T03:58:46.778Z,22.50
2023-02-12T04:01:17.912Z,22.10
2023-02-12T04:06:29.182Z,20.90
2023-02-12T04:09:04.354Z,22.20
2023-02-12T04:11:48.050Z,23.08
2023-02-12T04:14:30.226Z,22.77
2023-02-12T04:17:11.627Z,22.38
2023-02-12T04:20:04.472Z,22.95
2023-02-12T04:22:53.264Z,22.58
2023-02-12T04:25:41.891Z,21.67
2023-02-12T04:28:21.224Z,23.70
2023-02-12T04:31:02.022Z,23.95
2023-02-12T04:33:40.584Z,24.77
2023-02-12T04:36:17.261Z,24.25
2023-02-12T04:38:55.513Z,23.05
2023-02-12T04:41:26.084Z,22.92
2023-02-12T04:43:56.868Z,21.50
2023-02-12T04:46:27.303Z,21.50
2023-02-12T04:49:01.415Z,19.08
2023-02-12T04:51:31.916Z,21.25
2023-02-12T04:54:04.871Z,21.50
2023-02-12T04:56:35.224Z,20.75
2023-02-12T04:59:06.131Z,20.17
2023-02-12T05:01:38.460Z,21.23
2023-02-12T05:04:10.648Z,22.73
2023-02-12T05:06:42.558Z,21.52
2023-02-12T05:09:19.422Z,22.90
2023-02-12T05:11:49.916Z,22.75
2023-02-12T05:14:20.370Z,25.10
2023-02-12T05:16:50.812Z,22.23
2023-02-12T05:19:21.083Z,23.23
2023-02-12T05:21:53.832Z,22.23
2023-02-12T05:24:26.977Z,23.27
2023-02-12T05:26:57.364Z,22.50
2023-02-12T05:29:27.684Z,23.43
2023-02-12T05:31:58.214Z,24.27
2023-02-12T05:34:28.644Z,22.60
2023-02-12T05:36:58.949Z,23.90
2023-02-12T05:39:31.925Z,22.20
2023-02-12T05:42:02.201Z,23.63
2023-02-12T05:44:32.461Z,21.90
2023-02-12T05:47:02.776Z,22.40
2023-02-12T05:49:33.491Z,21.83
2023-02-12T05:52:03.855Z,23.00
2023-02-12T05:54:37.066Z,22.25
2023-02-12T05:57:07.390Z,22.27
2023-02-12T05:59:37.668Z,21.43
2023-02-12T06:02:08.020Z,20.73
2023-02-12T06:04:38.311Z,21.83
2023-02-12T06:07:08.890Z,20.57
2023-02-12T06:09:41.820Z,20.88
2023-02-12T06:12:12.110Z,19.63
2023-02-12T06:14:44.738Z,18.27
2023-02-12T06:17:18.038Z,18.60
2023-02-12T06:19:48.337Z,20.30
2023-02-12T06:22:18.628Z,19.27
2023-02-12T06:24:51.618Z,18.80
2023-02-12T06:27:21.915Z,18.73
2023-02-12T06:29:52.352Z,19.80
2023-02-12T06:32:22.692Z,18.43
2023-02-12T06:34:53.070Z,21.10
2023-02-12T06:37:23.367Z,20.37
2023-02-12T06:39:56.346Z,22.03
2023-02-12T06:42:26.621Z,19.77
2023-02-12T06:44:56.986Z,19.60
2023-02-12T06:47:27.433Z,18.53
2023-02-12T06:49:57.915Z,18.92
2023-02-12T06:52:28.289Z,18.60
2023-02-12T06:55:01.242Z,18.73
2023-02-12T06:57:32.662Z,18.38
2023-02-12T07:00:02.993Z,17.48
2023-02-12T07:02:33.370Z,19.40
2023-02-12T07:05:03.725Z,18.50
2023-02-12T07:07:34.040Z,18.27
2023-02-12T07:10:08.854Z,18.47
2023-02-12T07:12:39.217Z,18.05
2023-02-12T07:15:10.897Z,18.58
2023-02-12T07:17:41.345Z,18.77
2023-02-12T07:20:13.412Z,17.58
2023-02-12T07:22:43.719Z,21.50
2023-02-12T07:25:16.601Z,22.40
2023-02-12T07:27:46.929Z,21.50
2023-02-12T07:30:19.827Z,21.27
2023-02-12T07:32:50.184Z,20.52
2023-02-12T07:35:20.716Z,19.27
2023-02-12T07:37:51.084Z,19.83
2023-02-12T07:40:24.178Z,21.53
2023-02-12T07:42:58.643Z,21.45
2023-02-12T07:45:29.173Z,21.63
2023-02-12T07:47:59.596Z,21.77
2023-02-12T07:50:30.104Z,22.20
2023-02-12T07:53:01.256Z,21.58
2023-02-12T07:55:34.232Z,22.30
2023-02-12T07:58:04.665Z,24.42
2023-02-12T08:00:35.147Z,26.20
2023-02-12T08:03:05.699Z,21.25
2023-02-12T08:05:36.097Z,22.73
2023-02-12T08:08:06.553Z,23.85
2023-02-12T08:10:39.737Z,21.23
2023-02-12T08:13:10.054Z,20.65
2023-02-12T08:15:40.388Z,20.57
2023-02-12T08:18:10.889Z,18.90
2023-02-12T08:20:41.256Z,19.75
2023-02-12T08:23:11.550Z,19.37
2023-02-12T08:25:44.419Z,46.87
2023-02-12T08:28:14.725Z,72.63
2023-02-12T08:30:45.239Z,23.27
2023-02-12T08:33:15.654Z,18.30
2023-02-12T08:35:45.998Z,15.57
2023-02-12T08:38:16.411Z,14.90
2023-02-12T08:40:49.400Z,14.85
2023-02-12T08:43:19.706Z,14.07
2023-02-12T08:45:50.046Z,13.03
2023-02-12T08:48:20.767Z,13.17
2023-02-12T08:50:51.251Z,14.52
2023-02-12T08:53:21.680Z,13.48
2023-02-12T08:55:55.090Z,12.25
2023-02-12T08:58:25.608Z,12.23
2023-02-12T09:00:56.099Z,13.20
2023-02-12T09:03:26.990Z,13.50
2023-02-12T09:05:57.760Z,11.93
2023-02-12T09:08:28.343Z,12.80
2023-02-12T09:11:01.447Z,13.38
2023-02-12T09:13:31.778Z,11.68
2023-02-12T09:16:05.508Z,12.38
2023-02-12T09:18:36.830Z,13.18
2023-02-12T09:21:09.837Z,11.50
2023-02-12T09:23:41.371Z,12.02
2023-02-12T09:26:18.049Z,11.40
2023-02-12T09:28:48.763Z,11.93
2023-02-12T09:31:26.560Z,10.95
2023-02-12T09:34:01.153Z,11.77
2023-02-12T09:36:31.719Z,10.90
2023-02-12T09:39:04.073Z,10.75
2023-02-12T09:42:12.843Z,10.05
2023-02-12T09:44:50.316Z,23.80
2023-02-12T09:47:27.076Z,16.42
2023-02-12T09:50:15.106Z,12.05
2023-02-12T09:52:45.908Z,10.13
2023-02-12T09:55:19.809Z,9.23
2023-02-12T09:57:54.898Z,9.50
2023-02-12T10:00:31.769Z,8.93
2023-02-12T10:03:07.350Z,9.48
2023-02-12T10:05:44.383Z,9.70
2023-02-12T10:08:31.464Z,9.73
2023-02-12T10:11:19.017Z,9.10
2023-02-12T10:14:06.079Z,7.47
2023-02-12T10:16:55.698Z,9.02
2023-02-12T10:19:41.814Z,8.82
2023-02-12T10:22:24.435Z,7.90
2023-02-12T10:25:11.174Z,10.98
2023-02-12T10:27:46.540Z,10.45
2023-02-12T10:30:27.124Z,11.00
2023-02-12T10:33:05.198Z,11.95
2023-02-12T10:35:38.049Z,12.07
2023-02-12T10:38:18.044Z,14.10
2023-02-12T10:40:50.422Z,14.73
2023-02-12T10:43:20.790Z,15.27
2023-02-12T10:45:54.053Z,15.85
2023-02-12T10:48:27.318Z,17.20
2023-02-12T10:51:39.196Z,17.10
2023-02-12T10:54:41.644Z,17.08
2023-02-12T10:57:20.783Z,17.48
2023-02-12T10:59:53.592Z,21.30
2023-02-12T11:02:30.633Z,15.70
2023-02-12T11:05:03.660Z,14.32
2023-02-12T11:07:51.307Z,13.30
2023-02-12T11:10:32.067Z,14.23
2023-02-12T11:13:03.511Z,13.60
2023-02-12T11:15:41.767Z,12.15
2023-02-12T11:18:26.438Z,11.27
2023-02-12T11:21:00.878Z,9.43
2023-02-12T11:23:34.500Z,9.30
2023-02-12T11:26:07.614Z,10.48
2023-02-12T11:28:40.475Z,10.50
2023-02-12T11:31:26.251Z,12.30
2023-02-12T11:34:19.807Z,12.52
2023-02-12T11:36:53.591Z,11.60
2023-02-12T11:39:27.609Z,10.45
2023-02-12T11:41:59.993Z,10.75
2023-02-12T11:44:35.702Z,11.30
2023-02-12T11:47:12.258Z,11.63
2023-02-12T11:49:52.472Z,10.70
2023-02-12T11:52:26.646Z,9.97
2023-02-12T11:55:01.466Z,9.60
2023-02-12T11:57:47.870Z,10.73
2023-02-12T12:00:24.107Z,8.35
2023-02-12T12:03:02.601Z,9.43
2023-02-12T12:05:41.514Z,9.20
2023-02-12T12:08:24.457Z,26.73
2023-02-12T12:11:02.994Z,22.02
2023-02-12T12:13:40.049Z,14.18
2023-02-12T12:16:28.995Z,10.07
2023-02-12T12:19:16.843Z,9.77
2023-02-12T12:21:58.791Z,9.73
2023-02-12T12:24:41.919Z,10.32
2023-02-12T12:27:47.893Z,10.73
2023-02-12T12:30:26.989Z,10.88
2023-02-12T12:33:00.905Z,10.00
2023-02-12T12:35:47.010Z,11.35
2023-02-12T12:38:35.139Z,10.35
2023-02-12T12:41:13.455Z,10.93
2023-02-12T12:44:02.142Z,10.82
2023-02-12T12:47:04.776Z,10.65
2023-02-12T12:49:53.933Z,11.65
2023-02-12T12:52:48.823Z,11.27
2023-02-12T12:55:57.740Z,12.32
2023-02-12T12:58:41.765Z,18.33
2023-02-12T13:01:48.179Z,25.00
2023-02-12T13:04:55.705Z,15.85
2023-02-12T13:07:49.357Z,12.95
2023-02-12T13:10:36.794Z,13.70
2023-02-12T13:13:29.566Z,12.98
2023-02-12T13:16:06.650Z,12.48
2023-02-12T13:18:52.972Z,14.25
2023-02-12T13:21:40.044Z,13.98
2023-02-12T13:24:24.733Z,14.07
2023-02-12T13:27:00.793Z,12.95
2023-02-12T13:29:38.153Z,12.17
2023-02-12T13:32:17.398Z,17.23
2023-02-12T13:34:48.489Z,12.35
2023-02-12T13:37:23.753Z,11.93
2023-02-12T13:39:56.192Z,10.70
2023-02-12T13:42:48.474Z,11.93
2023-02-12T13:45:33.174Z,12.50
2023-02-12T13:48:35.855Z,10.98
2023-02-12T13:51:17.619Z,11.10
2023-02-12T13:54:07.298Z,12.05
2023-02-12T13:56:44.963Z,12.95
2023-02-12T13:59:49.372Z,12.57
2023-02-12T14:02:46.529Z,11.45
2023-02-12T14:05:34.966Z,12.43
2023-02-12T14:08:09.423Z,12.65
2023-02-12T14:10:43.518Z,13.25
2023-02-12T14:13:25.376Z,14.38
2023-02-12T14:16:01.227Z,14.02
2023-02-12T14:18:35.852Z,14.45
2023-02-12T14:21:45.679Z,14.35
2023-02-12T14:24:53.092Z,15.07
2023-02-12T14:27:47.951Z,15.45
2023-02-12T14:30:40.366Z,15.25
2023-02-12T14:33:31.856Z,14.32
2023-02-12T14:39:32.407Z,15.32
2023-02-12T14:45:36.780Z,15.00
2023-02-12T14:48:08.812Z,16.50
2023-02-12T14:50:52.257Z,17.27
2023-02-12T14:53:40.774Z,16.08
2023-02-12T14:56:12.750Z,16.58
2023-02-12T14:58:43.396Z,16.20
2023-02-12T15:01:13.923Z,14.38
2023-02-12T15:03:50.135Z,18.63
2023-02-12T15:06:27.818Z,16.25
2023-02-12T15:09:06.148Z,14.60
2023-02-12T15:11:46.509Z,15.75
2023-02-12T15:14:23.190Z,14.93
2023-02-12T15:17:00.193Z,14.35
2023-02-12T15:19:43.168Z,14.32
2023-02-12T15:22:29.989Z,13.98
2023-02-12T15:25:18.246Z,13.57
2023-02-12T15:27:52.493Z,13.40
2023-02-12T15:30:27.049Z,14.10
2023-02-12T15:33:00.455Z,15.63
2023-02-12T15:35:33.552Z,14.05
2023-02-12T15:38:07.928Z,15.48
2023-02-12T15:40:38.555Z,15.50
2023-02-12T15:43:20.882Z,19.40
2023-02-12T15:45:55.975Z,20.65
2023-02-12T15:48:34.242Z,18.10
2023-02-12T15:51:11.985Z,18.77
2023-02-12T15:53:45.702Z,16.60
2023-02-12T15:56:19.107Z,14.82
2023-02-12T15:58:52.561Z,15.60
2023-02-12T16:01:25.597Z,14.10
2023-02-12T16:03:58.508Z,15.52
2023-02-12T16:06:34.353Z,14.70
2023-02-12T16:09:12.442Z,14.18
2023-02-12T16:11:46.287Z,14.48
2023-02-12T16:14:26.013Z,14.95
2023-02-12T16:16:58.944Z,14.73
2023-02-12T16:19:33.791Z,14.50
2023-02-12T16:22:11.646Z,15.10
2023-02-12T16:24:50.642Z,14.57
2023-02-12T16:27:24.611Z,14.88
2023-02-12T16:29:57.450Z,14.88
2023-02-12T16:32:39.319Z,14.93
2023-02-12T16:35:28.814Z,14.93
2023-02-12T16:38:05.256Z,15.75
2023-02-12T16:40:39.757Z,14.95
2023-02-12T16:43:29.449Z,14.73
2023-02-12T16:46:08.729Z,14.98
2023-02-12T16:48:44.812Z,14.98
2023-02-12T16:51:27.565Z,15.45
2023-02-12T16:54:00.310Z,16.08
2023-02-12T16:56:38.650Z,15.27
2023-02-12T16:59:10.098Z,15.60
2023-02-12T17:01:40.557Z,16.80
2023-02-12T17:04:17.583Z,16.27
2023-02-12T17:06:47.920Z,16.70
2023-02-12T17:09:18.274Z,16.57
2023-02-12T17:11:51.251Z,17.30
2023-02-12T17:14:23.504Z,17.27
2023-02-12T17:16:54.310Z,16.88
2023-02-12T17:19:24.679Z,16.38
2023-02-12T17:21:55.022Z,17.00
2023-02-12T17:24:29.449Z,16.25
2023-02-12T17:27:02.634Z,15.60
2023-02-12T17:29:33.588Z,16.58
2023-02-12T17:32:04.157Z,16.55
2023-02-12T17:34:47.630Z,16.40
2023-02-12T17:37:18.637Z,14.98
2023-02-12T17:39:49.260Z,16.75
2023-02-12T17:42:22.326Z,17.05
2023-02-12T17:44:52.708Z,17.17
2023-02-12T17:47:23.364Z,18.65
2023-02-12T17:49:53.870Z,20.05
2023-02-12T17:52:24.299Z,19.13
2023-02-12T17:54:54.664Z,18.85
2023-02-12T17:57:27.724Z,17.10
2023-02-12T17:59:58.170Z,18.70
2023-02-12T18:02:28.739Z,16.63
2023-02-12T18:04:59.218Z,17.73
2023-02-12T18:07:29.585Z,17.13
2023-02-12T18:09:59.930Z,17.77
2023-02-12T18:12:34.124Z,18.30
2023-02-12T18:15:07.895Z,20.17
2023-02-12T18:17:38.587Z,21.38
2023-02-12T18:20:11.483Z,18.77
2023-02-12T18:22:41.887Z,17.42
2023-02-12T18:25:12.336Z,16.10
2023-02-12T18:27:45.456Z,16.50
2023-02-12T18:30:18.113Z,16.30
2023-02-12T18:32:49.028Z,18.02
2023-02-12T18:35:19.693Z,15.93
2023-02-12T18:37:50.431Z,15.32
2023-02-12T18:40:21.226Z,15.95
2023-02-12T18:42:54.214Z,16.08
2023-02-12T18:45:24.561Z,20.65
2023-02-12T18:47:54.853Z,16.03
2023-02-12T18:50:25.145Z,14.65
2023-02-12T18:52:55.450Z,14.60
2023-02-12T18:55:25.838Z,20.37
2023-02-12T18:57:58.830Z,18.63
2023-02-12T19:00:29.503Z,21.00
2023-02-12T19:02:59.910Z,23.30
2023-02-12T19:05:30.380Z,34.53
2023-02-12T19:08:00.776Z,31.13
2023-02-12T19:10:31.436Z,31.63
2023-02-12T19:13:04.417Z,27.33
2023-02-12T19:15:34.833Z,31.42
2023-02-12T19:18:05.178Z,28.38
2023-02-12T19:20:36.018Z,29.73
2023-02-12T19:23:06.460Z,23.90
2023-02-12T19:25:42.810Z,21.77
2023-02-12T19:28:16.350Z,24.30
2023-02-12T19:30:46.687Z,24.73
2023-02-12T19:33:17.088Z,25.60
2023-02-12T19:35:47.403Z,25.27
2023-02-12T19:38:18.995Z,27.83
2023-02-12T19:40:49.316Z,29.75
2023-02-12T19:43:22.266Z,28.70
2023-02-12T19:45:52.613Z,26.77
2023-02-12T19:48:23.411Z,25.67
2023-02-12T19:50:53.899Z,21.58
2023-02-12T19:53:24.428Z,21.80
2023-02-12T19:55:54.872Z,22.50
2023-02-12T19:58:27.904Z,26.30
2023-02-12T20:00:58.206Z,25.38
2023-02-12T20:03:29.225Z,24.77
2023-02-12T20:06:04.387Z,24.67
2023-02-12T20:08:36.319Z,26.67
2023-02-12T20:11:09.776Z,25.92
2023-02-12T20:13:42.829Z,27.65
2023-02-12T20:16:16.127Z,27.90
2023-02-12T20:18:47.498Z,29.58
2023-02-12T20:21:21.168Z,29.60
2023-02-12T20:23:51.669Z,27.60
2023-02-12T20:26:22.532Z,29.52
2023-02-12T20:28:55.553Z,28.33
2023-02-12T20:31:31.073Z,26.75
2023-02-12T20:34:04.977Z,26.67
2023-02-12T20:36:37.192Z,27.20
2023-02-12T20:39:10.470Z,26.10
2023-02-12T20:41:41.094Z,25.48
2023-02-12T20:44:20.364Z,26.48
2023-02-12T20:46:55.720Z,26.77
2023-02-12T20:49:28.391Z,26.50
2023-02-12T20:51:58.852Z,25.60
2023-02-12T20:54:29.244Z,23.65
2023-02-12T20:56:59.594Z,25.77
2023-02-12T20:59:32.572Z,26.40
2023-02-12T21:02:03.115Z,26.50
2023-02-12T21:04:33.585Z,26.55
2023-02-12T21:07:03.952Z,25.60
2023-02-12T21:09:34.295Z,30.97
2023-02-12T21:12:04.624Z,26.03
2023-02-12T21:14:37.601Z,24.57
2023-02-12T21:17:07.963Z,25.08
2023-02-12T21:19:38.328Z,24.50
2023-02-12T21:22:08.775Z,24.30
2023-02-12T21:24:39.166Z,23.60
2023-02-12T21:27:10.986Z,24.13
2023-02-12T21:29:43.958Z,24.30
2023-02-12T21:32:14.320Z,25.63
2023-02-12T21:34:45.409Z,24.92
2023-02-12T21:37:16.916Z,26.13
2023-02-12T21:39:47.320Z,24.83
2023-02-12T21:42:17.755Z,24.30
2023-02-12T21:44:50.796Z,24.73
2023-02-12T21:47:21.141Z,25.52
2023-02-12T21:49:52.147Z,23.67
2023-02-12T21:52:22.575Z,22.67
2023-02-12T21:54:53.678Z,22.95
2023-02-12T21:59:56.585Z,24.35
2023-02-12T22:02:27.000Z,24.02
2023-02-12T22:04:57.644Z,23.07
2023-02-12T22:07:28.106Z,22.30
2023-02-12T22:09:59.132Z,22.15
2023-02-12T22:12:32.448Z,25.15
2023-02-12T22:15:05.427Z,26.02
2023-02-12T22:17:36.252Z,24.58
2023-02-12T22:20:07.165Z,25.27
2023-02-12T22:22:37.603Z,26.25
2023-02-12T22:25:09.214Z,27.55
2023-02-12T22:27:39.582Z,28.80
2023-02-12T22:30:14.195Z,27.08
2023-02-12T22:32:44.786Z,28.85
2023-02-12T22:35:15.407Z,28.92
2023-02-12T22:37:45.902Z,30.00
2023-02-12T22:40:18.301Z,27.52
2023-02-12T22:42:48.673Z,29.27
2023-02-12T22:45:21.812Z,26.13
2023-02-12T22:47:52.156Z,31.17
2023-02-12T22:50:22.587Z,26.50
2023-02-12T22:52:52.962Z,28.52
2023-02-12T22:55:23.273Z,26.87
2023-02-12T22:57:54.067Z,27.87
2023-02-12T23:00:27.419Z,26.73
2023-02-12T23:02:57.724Z,27.40
2023-02-12T23:05:28.288Z,24.40
2023-02-12T23:07:58.718Z,27.20
2023-02-12T23:10:29.178Z,25.55
2023-02-12T23:12:59.595Z,25.33
2023-02-12T23:15:33.121Z,24.70
2023-02-12T23:18:03.468Z,24.60
2023-02-12T23:20:33.831Z,24.98
2023-02-12T23:23:04.156Z,24.40
2023-02-12T23:25:34.523Z,24.97
2023-02-12T23:28:04.919Z,23.17
2023-02-12T23:30:38.130Z,22.20
2023-02-12T23:33:09.599Z,24.42
2023-02-12T23:35:40.054Z,22.75
2023-02-12T23:38:10.523Z,24.17
2023-02-12T23:40:41.299Z,22.73
2023-02-12T23:43:12.029Z,22.50
2023-02-12T23:45:46.955Z,23.00
2023-02-12T23:48:18.220Z,23.83
2023-02-12T23:50:50.103Z,21.85
2023-02-12T23:53:20.741Z,22.42
2023-02-12T23:55:53.309Z,21.77
2023-02-12T23:58:23.598Z,22.13
